Time;durP1;ratioP1;P1;durP2;ratioP2;P2;SDS_P1;SDS_P2;PMS_P1;PMS_P2;Temp;Humidity;BMP_temperature;BMP_pressure;BME280_temperature;BME280_humidity;BME280_pressure;Samples;Min_cycle;Max_cycle;Signal;HPM_P1;HPM_P2
2024/04/01 00:02:06;;;;;;;41.00;6.20;;;;;;;10.83;60.43;95916.65;107634;1236;103450;-83
2024/04/01 00:05:13;;;;;;;46.30;6.50;;;;;;;11.29;59.79;95907.73;107642;1243;100042;-83
2024/04/01 00:08:20;;;;;;;40.10;7.20;;;;;;;11.72;59.16;95895.59;107567;1240;99598;-84
2024/04/01 00:11:27;;;;;;;47.30;6.90;;;;;;;12.16;58.34;95889.23;107563;1249;100459;-83
2024/04/01 00:14:34;;;;;;;40.00;7.20;;;;;;;12.54;57.46;95887.90;107545;1242;100488;-83
2024/04/01 00:17:30;;;;;;;44.70;7.30;;;;;;;12.92;56.67;95884.83;107569;1236;104784;-82
2024/04/01 00:20:37;;;;;;;47.20;7.00;;;;;;;13.10;55.98;95886.19;107702;1251;101228;-83
2024/04/01 00:23:46;;;;;;;47.40;6.40;;;;;;;13.28;55.42;95885.30;107648;1246;100486;-81
2024/04/01 00:26:53;;;;;;;54.20;6.50;;;;;;;13.46;54.97;95879.52;107738;1236;99157;-81
2024/04/01 00:30:00;;;;;;;42.20;6.70;;;;;;;13.73;54.17;95892.83;107645;1241;99781;-81
2024/04/01 00:33:09;;;;;;;60.10;8.30;;;;;;;14.04;53.11;95897.66;107708;1240;104794;-84
2024/04/01 00:36:21;;;;;;;50.20;7.40;;;;;;;14.31;52.60;95895.51;107719;1240;101129;-83
2024/04/01 00:39:11;;;;;;;38.10;5.70;;;;;;;14.51;51.99;95895.80;107451;1242;99366;-85
2024/04/01 00:42:18;;;;;;;43.10;6.40;;;;;;;14.63;51.69;95896.93;107684;1241;99487;-81
2024/04/01 00:45:25;;;;;;;40.90;6.30;;;;;;;14.69;51.16;95898.02;109251;1240;99202;-81
2024/04/01 00:48:25;;;;;;;50.70;7.70;;;;;;;14.80;50.72;95890.98;107730;1241;103592;-81
2024/04/01 00:51:26;;;;;;;47.60;6.80;;;;;;;14.86;50.68;95888.36;107704;1241;100022;-85
2024/04/01 00:54:33;;;;;;;35.20;6.70;;;;;;;14.95;50.24;95876.66;107670;1242;99814;-81
2024/04/01 00:57:39;;;;;;;41.00;6.90;;;;;;;15.00;50.03;95872.40;107642;1236;100501;-82
2024/04/01 01:00:46;;;;;;;56.50;9.20;;;;;;;15.00;49.83;95870.34;107692;1243;99717;-83
2024/04/01 01:03:52;;;;;;;50.50;8.60;;;;;;;15.00;49.27;95865.92;107756;1251;104863;-75
2024/04/01 01:06:39;;;;;;;44.50;6.50;;;;;;;15.03;49.39;95856.65;107849;1241;100025;-76
2024/04/01 01:09:46;;;;;;;40.90;6.90;;;;;;;15.04;49.39;95855.94;107741;1242;100479;-79
2024/04/01 01:12:55;;;;;;;38.70;6.30;;;;;;;15.05;49.21;95853.48;107694;1246;100552;-77
2024/04/01 01:16:01;;;;;;;40.00;6.80;;;;;;;15.06;49.24;95854.25;107592;1243;99949;-80
2024/04/01 01:19:01;;;;;;;40.60;8.10;;;;;;;15.00;49.36;95849.96;107552;1241;104615;-77
2024/04/01 01:22:08;;;;;;;36.30;5.80;;;;;;;14.90;49.53;95844.24;107621;1248;101257;-81
2024/04/01 01:25:15;;;;;;;43.30;7.80;;;;;;;14.79;49.31;95841.66;107678;1248;99963;-77
2024/04/01 01:28:13;;;;;;;45.80;8.20;;;;;;;14.75;49.24;95839.80;107683;1242;99354;-79
2024/04/01 01:31:20;;;;;;;42.20;7.70;;;;;;;14.74;49.08;95840.08;107700;1247;99262;-85
2024/04/01 01:34:27;;;;;;;46.20;7.00;;;;;;;14.81;48.97;95839.27;107660;1241;104811;-82
2024/04/01 01:37:34;;;;;;;43.90;6.90;;;;;;;14.85;48.97;95837.63;107704;1249;100059;-77
2024/04/01 01:54:32;;;;;;;47.50;5.90;;;;;;;15.11;48.53;95817.14;107925;1239;101561;-80
2024/04/01 01:57:39;;;;;;;48.00;7.40;;;;;;;15.18;48.54;95813.11;107588;1239;100514;-78
2024/04/01 02:00:39;;;;;;;41.70;7.00;;;;;;;15.20;48.52;95807.98;107774;1239;100471;-82
2024/04/01 02:03:46;;;;;;;51.50;7.50;;;;;;;15.23;48.54;95808.18;107684;1236;99243;-82
2024/04/01 02:06:53;;;;;;;41.20;7.00;;;;;;;15.26;48.39;95810.72;107735;1238;103850;-81
2024/04/01 02:10:00;;;;;;;41.30;7.00;;;;;;;15.29;48.49;95817.08;107748;1243;100428;-82
2024/04/01 02:13:09;;;;;;;49.20;7.60;;;;;;;15.34;48.25;95810.80;107733;1236;100520;-81
2024/04/01 02:16:25;;;;;;;48.00;7.60;;;;;;;15.41;48.28;95814.73;107704;1239;99366;-77
2024/04/01 02:19:32;;;;;;;51.30;7.80;;;;;;;15.46;48.25;95821.98;107589;1242;99839;-82
2024/04/01 02:22:39;;;;;;;45.50;7.00;;;;;;;15.49;48.24;95823.11;107789;1241;103843;-82
2024/04/01 02:25:46;;;;;;;45.10;6.50;;;;;;;15.50;48.26;95834.80;107797;1244;101456;-82
2024/04/01 02:28:52;;;;;;;52.10;7.60;;;;;;;15.47;48.20;95843.88;107685;1239;99679;-84
2024/04/01 02:31:59;;;;;;;52.70;7.90;;;;;;;15.42;48.26;95841.10;103740;1244;99285;-81
2024/04/01 02:34:59;;;;;;;59.80;7.90;;;;;;;15.40;48.28;95841.16;107723;1240;112233;-81
2024/04/01 02:38:05;;;;;;;56.90;8.90;;;;;;;15.39;48.28;95845.35;107798;1237;101635;-81
2024/04/01 02:41:11;;;;;;;52.50;7.70;;;;;;;15.36;48.35;95837.58;107755;1239;99695;-82
2024/04/01 02:44:18;;;;;;;38.90;7.20;;;;;;;15.32;48.55;95836.30;107681;1251;99254;-82
2024/04/01 02:47:25;;;;;;;50.80;8.10;;;;;;;15.28;48.65;95838.71;107789;1239;99727;-82
2024/04/01 02:50:10;;;;;;;52.20;7.50;;;;;;;15.21;48.87;95839.62;107837;1242;104600;-81
2024/04/01 02:53:17;;;;;;;52.00;9.70;;;;;;;15.13;49.11;95853.07;107762;1239;100229;-83
2024/04/01 02:56:24;;;;;;;53.10;9.00;;;;;;;15.07;49.23;95850.55;107649;1242;99271;-77
2024/04/01 02:59:31;;;;;;;69.50;10.60;;;;;;;15.04;49.28;95845.77;107745;1240;99255;-78
2024/04/01 03:02:38;;;;;;;60.40;9.40;;;;;;;15.01;49.69;95849.20;107805;1247;99682;-80
2024/04/01 03:05:45;;;;;;;69.50;11.10;;;;;;;15.00;49.93;95843.11;107734;1240;103545;-82
2024/04/01 03:08:35;;;;;;;70.70;11.10;;;;;;;15.04;50.02;95841.96;107741;1239;100422;-86
2024/04/01 03:11:41;;;;;;;67.40;10.60;;;;;;;15.11;50.09;95845.20;107668;1241;99272;-80
2024/04/01 03:14:48;;;;;;;73.50;10.60;;;;;;;15.20;50.10;95850.54;107473;1239;99242;-80
2024/04/01 03:17:55;;;;;;;74.60;12.10;;;;;;;15.26;49.96;95838.55;107800;1239;99346;-77
2024/04/01 03:21:02;;;;;;;83.00;11.30;;;;;;;15.32;49.96;95823.16;107736;1239;103816;-80
2024/04/01 03:24:02;;;;;;;80.50;11.00;;;;;;;15.34;50.21;95811.77;107738;1239;101263;-81
2024/04/01 03:27:02;;;;;;;85.70;15.60;;;;;;;15.31;50.23;95813.92;107672;1249;99328;-78
2024/04/01 03:30:09;;;;;;;70.90;10.50;;;;;;;15.29;50.17;95814.36;107726;1242;99536;-77
2024/04/01 03:33:16;;;;;;;74.10;9.90;;;;;;;15.33;50.16;95811.77;107568;1241;99212;-81
2024/04/01 03:36:24;;;;;;;78.00;11.80;;;;;;;15.34;50.28;95806.70;107741;1248;104761;-82
2024/04/01 03:39:31;;;;;;;75.90;11.50;;;;;;;15.36;50.22;95796.31;107718;1251;99892;-82
2024/04/01 03:42:37;;;;;;;80.40;11.10;;;;;;;15.38;50.27;95794.46;107554;1241;99758;-84
2024/04/01 03:45:43;;;;;;;72.00;11.70;;;;;;;15.35;50.38;95796.91;107670;1241;99248;-82
2024/04/01 03:48:18;;;;;;;72.30;11.90;;;;;;;15.38;50.34;95808.98;107554;1242;99707;-81
2024/04/01 03:51:18;;;;;;;59.90;11.60;;;;;;;15.42;50.21;95815.38;107722;1239;104374;-81
2024/04/01 03:54:25;;;;;;;77.50;11.50;;;;;;;15.43;50.25;95808.95;107643;1248;100278;-81
2024/04/01 03:57:22;;;;;;;67.20;12.90;;;;;;;15.41;50.36;95815.33;107798;1241;99273;-83
2024/04/01 04:00:22;;;;;;;69.40;12.10;;;;;;;15.37;50.47;95824.42;107753;1239;99268;-82
2024/04/01 04:03:28;;;;;;;74.40;10.60;;;;;;;15.33;50.48;95828.59;107626;1240;99740;-83
2024/04/01 04:06:36;;;;;;;66.50;11.00;;;;;;;15.27;50.66;95828.61;107771;1240;104143;-83
2024/04/01 04:09:43;;;;;;;70.30;9.70;;;;;;;15.20;50.78;95823.70;107752;1242;100305;-82
2024/04/01 04:12:50;;;;;;;71.80;11.30;;;;;;;15.11;51.08;95824.38;107754;1240;99367;-83
2024/04/01 04:15:58;;;;;;;73.60;10.30;;;;;;;15.00;51.44;95818.77;107744;1241;99339;-82
2024/04/01 04:19:05;;;;;;;71.80;11.60;;;;;;;14.89;51.49;95806.15;107605;1240;99704;-82
2024/04/01 04:22:03;;;;;;;77.20;12.00;;;;;;;14.81;51.83;95801.89;107747;1238;104041;-84
2024/04/01 04:25:10;;;;;;;56.40;10.70;;;;;;;14.72;52.32;95809.74;107691;1237;101633;-84
2024/04/01 04:28:02;;;;;;;87.40;13.30;;;;;;;14.64;52.49;95809.10;107721;1248;99986;-80
2024/04/01 04:30:52;;;;;;;89.10;14.70;;;;;;;14.55;52.59;95813.09;107669;1248;99364;-82
2024/04/01 04:33:59;;;;;;;74.20;12.40;;;;;;;14.51;52.55;95822.05;107733;1245;99794;-81
2024/04/01 04:37:06;;;;;;;81.40;13.50;;;;;;;14.50;52.68;95818.52;107746;1240;104809;-82
2024/04/01 04:40:16;;;;;;;74.80;12.10;;;;;;;14.44;53.06;95817.08;107751;1244;99926;-81
2024/04/01 04:43:16;;;;;;;84.70;11.70;;;;;;;14.31;53.21;95811.52;107442;1251;99334;-82
2024/04/01 04:46:23;;;;;;;78.40;13.40;;;;;;;14.22;53.51;95809.91;107741;1241;100507;-78
2024/04/01 04:49:29;;;;;;;85.80;11.90;;;;;;;14.15;53.83;95815.23;107746;1240;99781;-81
2024/04/01 04:52:37;;;;;;;78.70;12.00;;;;;;;14.01;54.07;95806.13;107678;1240;103889;-81
2024/04/01 04:55:44;;;;;;;77.60;11.30;;;;;;;13.93;54.16;95803.84;107742;1240;101210;-83
2024/04/01 04:58:53;;;;;;;75.00;10.90;;;;;;;13.89;54.38;95803.19;107713;1240;99815;-81
2024/04/01 05:01:53;;;;;;;67.40;12.10;;;;;;;13.84;55.05;95803.78;107774;1239;100619;-79
2024/04/01 05:04:49;;;;;;;78.40;13.20;;;;;;;13.73;55.23;95799.11;107781;1242;99339;-79
2024/04/01 05:07:46;;;;;;;74.20;13.20;;;;;;;13.62;55.41;95787.02;107782;1248;103846;-80
2024/04/01 05:10:52;;;;;;;64.60;13.90;;;;;;;13.54;55.81;95775.13;107690;1251;100703;-80
2024/04/01 05:13:59;;;;;;;64.40;13.10;;;;;;;13.49;56.13;95772.80;107757;1240;100599;-81
2024/04/01 05:17:06;;;;;;;65.00;12.40;;;;;;;13.42;56.39;95773.10;107740;1250;99370;-81
2024/04/01 05:20:13;;;;;;;71.10;12.20;;;;;;;13.40;56.62;95761.55;107753;1250;99809;-82
2024/04/01 05:23:20;;;;;;;60.90;10.70;;;;;;;13.45;56.91;95754.89;107747;1247;104863;-82
2024/04/01 05:26:27;;;;;;;79.20;12.10;;;;;;;13.48;56.87;95748.29;107778;1239;100241;-80
2024/04/01 05:29:34;;;;;;;73.50;12.10;;;;;;;13.52;56.91;95751.22;107745;1247;100485;-80
2024/04/01 05:32:42;;;;;;;76.80;13.30;;;;;;;13.56;56.92;95760.65;107734;1239;99259;-86
2024/04/01 05:35:42;;;;;;;61.60;11.00;;;;;;;13.60;56.76;95763.04;107747;1242;99794;-87
2024/04/01 05:38:49;;;;;;;77.10;13.70;;;;;;;13.66;57.34;95760.22;107790;1235;104100;-83
2024/04/01 05:41:56;;;;;;;67.80;11.50;;;;;;;13.67;57.55;95756.96;107758;1241;101165;-85
2024/04/01 05:45:02;;;;;;;76.40;12.00;;;;;;;13.69;57.44;95762.00;107720;1247;99937;-79
2024/04/01 05:48:09;;;;;;;72.00;12.20;;;;;;;13.78;57.72;95749.54;107576;1241;99304;-83
2024/04/01 05:51:16;;;;;;;77.60;11.50;;;;;;;13.87;57.83;95743.36;107781;1251;100509;-81
2024/04/01 05:54:23;;;;;;;77.10;13.00;;;;;;;13.93;58.14;95734.94;107732;1241;105906;-80
2024/04/01 05:57:12;;;;;;;72.90;13.30;;;;;;;14.01;58.36;95733.46;107756;1240;101634;-85
2024/04/01 06:00:20;;;;;;;73.80;14.50;;;;;;;14.10;58.45;95733.79;107709;1241;100514;-84
2024/04/01 06:03:27;;;;;;;84.10;13.50;;;;;;;14.19;58.55;95722.91;107991;1239;99291;-82
2024/04/01 06:06:34;;;;;;;74.50;14.10;;;;;;;14.26;58.68;95720.99;107710;1250;100495;-81
2024/04/01 06:09:41;;;;;;;81.50;14.90;;;;;;;14.35;58.52;95717.55;107716;1240;104798;-83
2024/04/01 06:12:48;;;;;;;76.70;11.80;;;;;;;14.43;58.14;95696.27;107721;1241;99955;-81
2024/04/01 06:15:47;;;;;;;82.80;13.10;;;;;;;14.52;57.84;95692.66;107753;1241;100035;-82
2024/04/01 06:18:54;;;;;;;76.10;12.80;;;;;;;14.63;57.53;95685.23;107690;1244;99795;-79
2024/04/01 06:22:01;;;;;;;77.50;12.70;;;;;;;14.75;57.41;95705.16;107684;1250;100231;-76
2024/04/01 06:24:58;;;;;;;66.50;12.80;;;;;;;14.86;57.29;95695.48;107423;1241;103520;-82
2024/04/01 06:28:03;;;;;;;69.30;12.40;;;;;;;15.00;57.19;95680.41;107587;1241;101230;-83
2024/04/01 06:31:10;;;;;;;72.10;12.00;;;;;;;15.16;56.90;95674.78;107741;1241;99707;-76
2024/04/01 06:34:16;;;;;;;74.10;11.50;;;;;;;15.35;56.98;95666.54;107710;1243;99590;-76
2024/04/01 06:37:23;;;;;;;74.70;11.50;;;;;;;15.56;56.77;95673.31;107751;1245;99676;-78
2024/04/01 06:40:28;;;;;;;67.70;10.80;;;;;;;15.76;56.46;95677.82;107791;1247;103876;-76
2024/04/01 06:43:15;;;;;;;69.10;11.90;;;;;;;15.97;56.23;95668.59;107745;1248;100229;-82
2024/04/01 06:46:22;;;;;;;74.40;11.70;;;;;;;16.12;56.13;95681.13;107523;1241;99339;-84
2024/04/01 06:49:29;;;;;;;59.10;11.50;;;;;;;16.27;55.77;95696.27;107707;1247;100481;-85
2024/04/01 06:52:36;;;;;;;61.20;10.60;;;;;;;16.40;55.92;95697.33;107590;1241;99799;-83
2024/04/01 06:55:34;;;;;;;77.10;12.40;;;;;;;16.53;55.74;95693.95;107750;1248;103505;-85
2024/04/01 06:58:30;;;;;;;67.90;10.80;;;;;;;16.66;54.91;95674.86;107776;1240;101605;-84
2024/04/01 07:01:37;;;;;;;62.90;9.70;;;;;;;16.79;54.02;95666.68;107552;1245;99850;-82
2024/04/01 07:04:34;;;;;;;77.30;11.70;;;;;;;16.94;53.61;95676.80;107749;1250;99628;-83
2024/04/01 07:07:41;;;;;;;64.40;10.20;;;;;;;17.08;52.97;95674.86;107781;1239;100549;-83
2024/04/01 07:10:41;;;;;;;57.30;9.10;;;;;;;17.25;51.34;95666.53;107764;1241;103323;-83
2024/04/01 07:13:30;;;;;;;65.80;10.30;;;;;;;17.51;49.57;95672.19;107803;1236;99937;-84
2024/04/01 07:16:37;;;;;;;74.90;10.60;;;;;;;17.75;50.07;95670.03;107772;1248;100072;-80
2024/04/01 07:19:44;;;;;;;89.20;11.10;;;;;;;17.94;49.73;95653.11;107705;1242;100501;-81
2024/04/01 07:22:43;;;;;;;99.90;17.30;;;;;;;18.14;49.11;95660.38;107752;1240;99707;-79
2024/04/01 07:25:51;;;;;;;86.70;12.30;;;;;;;18.34;47.89;95640.39;107702;1243;103871;-84
2024/04/01 07:28:57;;;;;;;72.50;10.50;;;;;;;18.63;46.84;95621.87;107799;1241;101518;-81
2024/04/01 07:32:04;;;;;;;113.50;13.10;;;;;;;18.94;46.91;95624.47;107726;1247;100235;-81
2024/04/01 07:35:11;;;;;;;73.90;11.50;;;;;;;19.23;45.78;95620.36;107738;1247;99342;-79
2024/04/01 07:38:10;;;;;;;71.50;11.90;;;;;;;19.53;45.65;95612.02;107755;1241;100394;-80
2024/04/01 07:41:17;;;;;;;86.00;13.20;;;;;;;19.88;44.31;95610.56;107639;1248;105000;-75
2024/04/01 07:44:07;;;;;;;101.80;12.60;;;;;;;20.29;42.89;95621.15;107726;1250;101465;-82
2024/04/01 07:47:13;;;;;;;105.20;13.60;;;;;;;20.61;41.60;95625.25;107716;1240;100138;-76
2024/04/01 07:50:11;;;;;;;75.00;11.80;;;;;;;20.95;41.34;95630.81;107748;1243;99297;-76
2024/04/01 07:53:18;;;;;;;95.60;12.50;;;;;;;21.30;41.13;95634.73;107785;1237;100192;-77
2024/04/01 07:56:25;;;;;;;92.60;14.90;;;;;;;21.66;41.25;95638.95;107738;1242;112486;-75
2024/04/01 07:59:32;;;;;;;80.20;12.00;;;;;;;22.01;40.06;95650.71;107734;1240;101337;-75
2024/04/01 08:02:39;;;;;;;83.20;13.30;;;;;;;22.26;39.82;95655.25;107540;1248;100600;-84
2024/04/01 08:05:35;;;;;;;78.40;11.30;;;;;;;22.49;38.85;95651.84;107705;1251;99255;-76
2024/04/01 08:08:42;;;;;;;67.30;11.10;;;;;;;22.65;39.23;95648.70;107736;1240;99678;-78
2024/04/01 08:11:39;;;;;;;84.50;12.70;;;;;;;22.84;38.91;95644.45;107701;1241;103983;-76
2024/04/01 08:14:46;;;;;;;83.10;13.40;;;;;;;22.99;39.16;95637.13;107686;1235;100075;-78
2024/04/01 08:17:33;;;;;;;89.00;13.20;;;;;;;23.11;38.47;95620.23;107706;1243;99250;-87
2024/04/01 08:20:19;;;;;;;81.10;12.20;;;;;;;23.21;38.43;95609.68;107783;1247;99198;-77
2024/04/01 08:22:50;;;;;;;74.80;13.10;;;;;;;23.39;37.95;95596.42;107740;1241;100257;-79
2024/04/01 08:25:28;;;;;;;72.40;9.90;;;;;;;23.52;37.26;95599.24;107735;1240;103227;-79
2024/04/01 08:28:35;;;;;;;72.90;13.10;;;;;;;23.58;36.83;95598.45;107720;1250;100515;-80
2024/04/01 08:31:04;;;;;;;75.50;13.00;;;;;;;23.71;35.39;95596.14;107734;1240;100409;-85
2024/04/01 08:34:02;;;;;;;83.90;12.40;;;;;;;23.83;34.97;95596.52;107814;1245;100492;-83
2024/04/01 08:36:49;;;;;;;86.10;12.40;;;;;;;24.07;35.95;95587.52;107698;1247;99240;-85
2024/04/01 08:39:27;;;;;;;78.40;13.30;;;;;;;24.28;34.09;95584.54;107784;1248;103511;-79
2024/04/01 08:42:25;;;;;;;93.40;13.80;;;;;;;24.38;34.38;95581.12;107733;1240;100870;-83
2024/04/01 08:45:01;;;;;;;79.90;13.00;;;;;;;24.51;34.14;95584.23;107743;1239;100526;-82
2024/04/01 08:47:58;;;;;;;74.20;12.80;;;;;;;24.56;33.84;95571.37;107712;1240;99272;-81
2024/04/01 08:50:35;;;;;;;76.00;11.90;;;;;;;24.58;32.72;95570.25;107715;1247;99783;-81
2024/04/01 08:53:28;;;;;;;80.90;12.60;;;;;;;24.52;32.24;95568.64;107782;1243;105108;-84
2024/04/01 08:56:35;;;;;;;77.90;12.70;;;;;;;24.33;31.58;95562.91;107732;1238;101120;-79
2024/04/01 08:59:22;;;;;;;87.60;20.90;;;;;;;24.21;32.41;95553.64;107476;1241;99727;-81
2024/04/01 09:02:09;;;;;;;77.80;12.50;;;;;;;24.20;32.60;95543.98;107636;1241;99253;-79
2024/04/01 09:04:56;;;;;;;78.60;11.70;;;;;;;24.13;32.11;95546.11;107728;1235;99768;-81
2024/04/01 09:07:22;;;;;;;77.60;11.60;;;;;;;24.14;32.44;95545.78;107759;1248;104610;-79
2024/04/01 09:10:09;;;;;;;66.40;12.80;;;;;;;24.23;32.63;95542.38;107735;1241;100491;-81
2024/04/01 09:12:46;;;;;;;71.40;10.70;;;;;;;24.37;33.00;95551.30;107687;1249;99833;-80
2024/04/01 09:15:36;;;;;;;71.60;11.20;;;;;;;24.56;32.53;95546.63;107724;1250;99268;-85
2024/04/01 09:18:36;;;;;;;61.80;10.40;;;;;;;24.69;32.44;95548.55;107706;1241;99362;-76
2024/04/01 09:21:12;;;;;;;68.10;10.70;;;;;;;24.65;31.73;95548.80;107667;1237;104893;-76
2024/04/01 09:23:42;;;;;;;62.10;11.70;;;;;;;24.59;32.15;95556.91;107708;1240;99926;-79
2024/04/01 09:26:11;;;;;;;63.20;11.00;;;;;;;24.53;31.55;95559.39;107726;1244;99332;-75
2024/04/01 09:28:52;;;;;;;68.60;10.50;;;;;;;24.50;32.37;95558.02;107698;1240;99783;-76
2024/04/01 09:31:22;;;;;;;58.00;9.80;;;;;;;24.54;32.20;95562.41;107726;1241;99685;-83
2024/04/01 09:34:18;;;;;;;73.70;11.10;;;;;;;24.55;31.95;95564.55;107780;1243;103439;-79
2024/04/01 09:37:05;;;;;;;71.70;9.80;;;;;;;24.48;31.58;95564.39;107696;1235;100223;-81
2024/04/01 09:40:00;;;;;;;71.30;11.10;;;;;;;24.43;32.03;95556.11;107679;1240;99645;-85
2024/04/01 09:42:33;;;;;;;57.50;9.60;;;;;;;24.39;32.21;95559.73;107721;1238;99426;-85
2024/04/01 09:45:16;;;;;;;54.30;8.90;;;;;;;24.42;32.29;95559.33;107737;1239;99788;-85
2024/04/01 09:48:07;;;;;;;63.60;10.50;;;;;;;24.40;31.98;95554.56;107730;1250;103425;-83
2024/04/01 09:50:43;;;;;;;55.30;10.40;;;;;;;24.36;32.27;95549.20;107759;1251;100246;-85
2024/04/01 09:53:12;;;;;;;65.50;10.50;;;;;;;24.38;31.99;95556.39;107729;1245;100323;-83
2024/04/01 09:56:11;;;;;;;66.50;10.10;;;;;;;24.37;31.98;95543.13;107725;1241;99455;-84
2024/04/01 09:59:06;;;;;;;60.00;9.80;;;;;;;24.43;32.45;95536.91;107307;1244;99724;-83
2024/04/01 10:02:13;;;;;;;56.80;9.30;;;;;;;24.47;32.17;95537.12;107664;1249;104719;-84
2024/04/01 10:05:06;;;;;;;58.30;9.60;;;;;;;24.47;31.65;95538.22;107778;1248;101213;-84
2024/04/01 10:08:12;;;;;;;61.30;10.00;;;;;;;24.46;30.96;95531.65;107697;1241;99911;-83
2024/04/01 10:11:14;;;;;;;51.10;8.80;;;;;;;24.49;31.19;95523.73;106871;1248;100509;-85
2024/04/01 10:14:39;;;;;;;56.10;9.10;;;;;;;24.58;31.19;95529.92;106895;1251;99728;-85
2024/04/01 10:17:51;;;;;;;57.50;9.90;;;;;;;24.68;31.69;95531.64;105865;1257;104766;-85
2024/04/01 10:21:12;;;;;;;54.20;8.40;;;;;;;24.79;31.31;95538.52;105273;1263;100087;-84
2024/04/01 10:24:15;;;;;;;52.30;8.90;;;;;;;24.90;31.22;95528.13;104932;1264;100616;-84
2024/04/01 10:47:28;;;;;;;38.90;7.30;;;;;;;24.36;29.35;95524.70;101879;1295;635896;-91
2024/04/01 10:50:21;;;;;;;50.90;8.30;;;;;;;24.25;29.69;95517.19;103950;1278;96044;-85
2024/04/01 10:53:34;;;;;;;49.90;7.90;;;;;;;24.15;29.15;95535.63;103939;1271;96026;-77
2024/04/01 10:56:22;;;;;;;49.40;8.20;;;;;;;24.07;29.47;95528.21;103965;1275;99980;-85
2024/04/01 10:59:41;;;;;;;48.10;7.90;;;;;;;24.07;29.96;95523.96;103966;1273;100292;-84
2024/04/01 11:03:19;;;;;;;61.20;7.30;;;;;;;24.03;30.11;95515.96;104051;1269;107688;-88
2024/04/01 11:06:30;;;;;;;51.60;7.90;;;;;;;24.01;30.01;95507.09;103826;1275;95958;-84
2024/04/01 11:09:55;;;;;;;47.80;8.60;;;;;;;24.01;29.68;95511.57;103818;1273;97335;-85
2024/04/01 11:12:41;;;;;;;41.10;7.00;;;;;;;24.17;29.42;95518.48;103360;1283;100974;-82
2024/04/01 11:15:14;;;;;;;48.60;7.30;;;;;;;24.44;29.30;95529.69;103294;1290;101134;-85
2024/04/01 11:18:02;;;;;;;41.40;7.10;;;;;;;24.62;29.52;95531.45;103295;1283;100294;-84
2024/04/01 11:21:19;;;;;;;59.80;8.20;;;;;;;24.76;28.92;95541.82;103288;1281;97639;-82
2024/04/01 11:27:56;;;;;;;53.10;8.50;;;;;;;24.84;28.51;95532.14;102874;1273;102820;-81
2024/04/01 11:30:52;;;;;;;55.90;7.70;;;;;;;24.85;28.09;95524.44;103049;1292;100251;-82
2024/04/01 11:43:10;;;;;;;60.50;10.10;;;;;;;24.65;28.24;95534.87;102176;1300;103098;-84
2024/04/01 11:45:51;;;;;;;66.60;11.80;;;;;;;24.59;27.97;95532.77;103207;1282;101956;-87
2024/04/01 11:48:40;;;;;;;63.40;10.10;;;;;;;24.54;28.12;95544.98;103222;1279;100250;-84
2024/04/01 11:51:11;;;;;;;68.90;10.70;;;;;;;24.50;28.25;95546.75;103312;1280;97868;-84
2024/04/01 11:53:42;;;;;;;57.20;9.80;;;;;;;24.41;27.84;95544.17;103217;1289;99586;-83
2024/04/01 11:56:35;;;;;;;77.60;9.60;;;;;;;24.32;28.32;95536.24;103159;1282;101499;-83
2024/04/01 11:59:57;;;;;;;54.10;10.40;;;;;;;24.29;28.50;95535.42;103157;1289;114322;-87
2024/04/01 12:02:25;;;;;;;76.10;12.40;;;;;;;24.26;28.38;95538.25;103206;1277;100045;-76
2024/04/01 12:05:13;;;;;;;61.50;10.50;;;;;;;24.24;28.47;95542.92;103525;1273;96804;-78
2024/04/01 12:07:56;;;;;;;57.40;10.70;;;;;;;24.25;28.47;95535.92;103771;1273;98539;-76
2024/04/01 12:10:29;;;;;;;61.90;9.70;;;;;;;24.25;28.51;95529.40;104110;1281;101370;-86
2024/04/01 12:13:27;;;;;;;58.90;9.50;;;;;;;24.28;28.33;95539.72;104283;1267;101529;-82
2024/04/01 12:16:11;;;;;;;61.10;9.40;;;;;;;24.29;27.67;95543.37;104235;1263;99235;-81
2024/04/01 12:19:13;;;;;;;63.00;11.10;;;;;;;24.30;27.78;95535.16;104851;1261;96556;-83
2024/04/01 12:22:02;;;;;;;69.90;11.80;;;;;;;24.39;27.51;95529.05;104904;1258;97043;-85
2024/04/01 12:24:30;;;;;;;54.50;10.10;;;;;;;24.55;28.03;95520.50;104633;1264;101489;-81
2024/04/01 12:27:22;;;;;;;79.40;10.40;;;;;;;24.80;28.07;95511.27;104897;1258;101475;-88
2024/04/01 12:30:14;;;;;;;62.40;10.30;;;;;;;25.09;28.05;95510.51;104761;1258;99091;-81
2024/04/01 12:32:48;;;;;;;67.00;8.90;;;;;;;25.19;26.58;95516.73;104877;1260;97490;-82
2024/04/01 12:35:27;;;;;;;69.50;9.20;;;;;;;25.22;25.68;95519.90;104887;1267;97898;-80
2024/04/01 12:38:15;;;;;;;63.20;9.40;;;;;;;25.26;26.18;95513.69;104911;1264;101128;-80
2024/04/01 12:40:46;;;;;;;71.90;10.40;;;;;;;25.35;26.24;95513.17;104885;1269;100421;-84
2024/04/01 12:43:26;;;;;;;54.60;9.00;;;;;;;25.48;26.17;95503.20;104952;1270;100709;-84
2024/04/01 12:46:00;;;;;;;58.60;9.50;;;;;;;25.55;25.95;95508.90;104933;1261;97809;-78
2024/04/01 12:48:29;;;;;;;61.90;11.10;;;;;;;25.58;25.91;95504.89;104995;1257;97122;-77
2024/04/01 12:51:15;;;;;;;60.20;10.00;;;;;;;25.61;25.21;95523.52;104965;1254;101341;-84
2024/04/01 12:54:09;;;;;;;63.90;9.60;;;;;;;25.69;24.71;95532.27;104896;1260;101497;-81
2024/04/01 12:56:53;;;;;;;74.60;11.20;;;;;;;25.90;24.68;95529.79;104877;1254;99093;-85
2024/04/01 12:59:42;;;;;;;72.90;11.00;;;;;;;26.22;24.86;95520.64;104865;1260;96665;-84
2024/04/01 13:02:52;;;;;;;70.30;11.30;;;;;;;26.52;23.92;95533.97;104886;1261;97080;-84
2024/04/01 13:05:36;;;;;;;64.10;11.20;;;;;;;26.65;24.26;95537.77;104373;1264;101370;-86
2024/04/01 13:08:47;;;;;;;73.40;11.50;;;;;;;26.65;23.84;95537.30;104305;1267;101117;-84
2024/04/01 13:11:46;;;;;;;64.30;11.10;;;;;;;26.56;23.74;95537.80;103900;1282;99272;-84
2024/04/01 13:14:46;;;;;;;71.50;10.70;;;;;;;26.48;24.04;95544.95;103919;1273;97050;-83
2024/04/01 13:17:29;;;;;;;70.60;12.20;;;;;;;26.51;23.32;95562.51;103884;1278;97540;-79
2024/04/01 13:20:11;;;;;;;68.00;9.10;;;;;;;26.41;23.37;95568.81;103917;1270;100990;-77
2024/04/01 13:22:56;;;;;;;70.10;10.50;;;;;;;26.28;23.36;95573.19;103923;1273;101403;-80
2024/04/01 13:26:04;;;;;;;75.40;12.90;;;;;;;26.22;23.67;95579.41;103952;1275;99342;-82
2024/04/01 13:28:59;;;;;;;71.30;11.70;;;;;;;26.37;24.21;95581.02;104001;1290;96721;-79
2024/04/01 13:31:58;;;;;;;62.70;10.10;;;;;;;26.57;24.45;95580.42;104025;1275;97040;-80
2024/04/01 13:34:48;;;;;;;74.90;10.10;;;;;;;26.80;24.26;95569.45;103924;1277;101063;-82
2024/04/01 13:37:54;;;;;;;76.70;13.10;;;;;;;27.01;24.63;95567.34;103886;1274;101494;-82
2024/04/01 13:41:03;;;;;;;73.20;12.00;;;;;;;27.19;24.12;95566.24;103873;1282;99091;-80
2024/04/01 13:43:42;;;;;;;60.90;10.40;;;;;;;27.29;24.01;95550.70;104056;1283;96629;-80
2024/04/01 13:46:51;;;;;;;60.70;10.50;;;;;;;27.40;24.13;95545.80;104259;1262;97420;-84
2024/04/01 13:49:48;;;;;;;69.90;11.80;;;;;;;27.50;23.78;95541.90;104821;1254;101461;-81
2024/04/01 13:52:35;;;;;;;68.00;11.00;;;;;;;27.42;23.87;95529.94;104882;1257;101749;-85
2024/04/01 13:55:18;;;;;;;71.40;13.00;;;;;;;27.33;23.84;95526.58;104852;1259;98717;-82
2024/04/01 13:58:09;;;;;;;54.50;10.50;;;;;;;27.24;23.48;95524.33;104937;1260;96576;-81
2024/04/01 14:01:12;;;;;;;59.20;9.90;;;;;;;27.09;23.87;95519.74;104952;1257;97785;-82
2024/04/01 14:03:52;;;;;;;81.40;12.70;;;;;;;26.95;23.83;95513.00;104456;1263;100817;-82
2024/04/01 14:06:47;;;;;;;75.90;11.50;;;;;;;26.87;24.29;95509.09;104424;1261;99981;-83
2024/04/01 14:09:54;;;;;;;70.10;11.50;;;;;;;26.83;23.60;95501.82;104504;1261;100006;-81
2024/04/01 14:12:41;;;;;;;65.00;12.30;;;;;;;26.83;24.35;95486.80;104330;1264;96790;-90
2024/04/01 14:15:50;;;;;;;72.30;11.70;;;;;;;26.92;24.22;95488.52;104422;1267;97801;-82